createdAt,value
2023-03-31T00:02:22.893Z,12.80
2023-03-31T00:05:25.166Z,16.83
2023-03-31T00:08:30.314Z,11.40
2023-03-31T00:11:32.630Z,9.67
2023-03-31T00:14:34.290Z,10.57
2023-03-31T00:17:36.182Z,6.97
2023-03-31T00:20:39.038Z,6.20
2023-03-31T00:23:41.379Z,10.93
2023-03-31T00:26:43.814Z,6.37
2023-03-31T00:29:45.742Z,5.43
2023-03-31T00:32:47.403Z,6.43
2023-03-31T00:35:51.942Z,6.23
2023-03-31T00:38:54.628Z,8.70
2023-03-31T00:41:56.292Z,6.73
2023-03-31T00:45:19.203Z,7.43
2023-03-31T00:48:21.132Z,7.30
2023-03-31T00:51:23.700Z,7.30
2023-03-31T00:54:27.191Z,11.53
2023-03-31T00:57:32.613Z,5.27
2023-03-31T01:00:34.312Z,4.83
2023-03-31T01:03:36.078Z,5.80
2023-03-31T01:06:42.419Z,4.43
2023-03-31T01:09:47.369Z,5.90
2023-03-31T01:12:51.458Z,3.87
2023-03-31T01:15:53.725Z,4.37
2023-03-31T01:18:57.585Z,4.07
2023-03-31T01:22:17.607Z,7.63
2023-03-31T01:25:50.405Z,3.60
2023-03-31T01:28:55.071Z,4.00
2023-03-31T01:32:29.268Z,3.00
2023-03-31T01:35:51.554Z,2.53
2023-03-31T01:38:53.153Z,4.10
2023-03-31T01:42:14.705Z,4.43
2023-03-31T01:45:27.134Z,3.17
2023-03-31T01:48:34.946Z,3.50
2023-03-31T01:51:36.587Z,3.83
2023-03-31T01:54:54.006Z,5.90
2023-03-31T01:58:28.272Z,4.37
2023-03-31T02:01:56.494Z,4.50
2023-03-31T02:05:00.715Z,6.47
2023-03-31T02:08:06.461Z,4.90
2023-03-31T02:11:08.322Z,8.43
2023-03-31T02:14:11.610Z,5.50
2023-03-31T02:17:18.259Z,6.57
2023-03-31T02:20:21.801Z,5.30
2023-03-31T02:23:26.640Z,5.37
2023-03-31T02:26:31.179Z,5.87
2023-03-31T02:29:32.968Z,5.37
2023-03-31T02:32:36.609Z,6.40
2023-03-31T02:35:38.457Z,7.50
2023-03-31T02:38:44.138Z,6.37
2023-03-31T02:41:45.812Z,6.30
2023-03-31T02:44:47.644Z,5.07
2023-03-31T02:47:50.029Z,5.97
2023-03-31T02:50:54.927Z,6.63
2023-03-31T02:54:10.267Z,6.77
2023-03-31T02:57:27.211Z,6.20
2023-03-31T03:00:29.057Z,7.10
2023-03-31T03:03:33.964Z,10.20
2023-03-31T03:06:43.443Z,27.47
2023-03-31T03:10:01.583Z,12.57
2023-03-31T03:13:09.769Z,11.87
2023-03-31T03:16:18.678Z,16.50
2023-03-31T03:19:21.671Z,15.83
2023-03-31T03:22:23.598Z,10.43
2023-03-31T03:25:25.821Z,14.27
2023-03-31T03:28:27.901Z,12.37
2023-03-31T03:31:30.870Z,11.97
2023-03-31T03:34:32.694Z,12.93
2023-03-31T03:37:34.637Z,12.50
2023-03-31T03:40:36.420Z,12.60
2023-03-31T03:43:38.050Z,12.73
2023-03-31T03:46:39.823Z,12.47
2023-03-31T03:49:41.494Z,15.87
2023-03-31T03:52:43.181Z,12.93
2023-03-31T03:55:45.519Z,13.00
2023-03-31T03:58:47.191Z,11.43
2023-03-31T04:01:49.004Z,17.47
2023-03-31T04:04:50.669Z,20.30
2023-03-31T04:07:52.439Z,13.13
2023-03-31T04:10:54.114Z,12.43
2023-03-31T04:13:55.925Z,19.13
2023-03-31T04:16:58.694Z,12.70
2023-03-31T04:20:02.002Z,21.00
2023-03-31T04:23:05.753Z,25.23
2023-03-31T04:26:09.073Z,23.50
2023-03-31T04:29:12.797Z,21.20
2023-03-31T04:32:15.074Z,20.67
2023-03-31T04:35:20.876Z,22.10
2023-03-31T04:38:23.815Z,28.50
2023-03-31T04:41:27.591Z,36.80
2023-03-31T04:44:29.346Z,49.03
2023-03-31T04:47:31.092Z,36.23
2023-03-31T04:50:32.828Z,47.87
2023-03-31T04:53:34.432Z,45.47
2023-03-31T04:56:36.234Z,32.00
2023-03-31T04:59:37.870Z,41.23
2023-03-31T05:02:39.778Z,28.17
2023-03-31T05:05:41.597Z,32.80
2023-03-31T05:08:43.635Z,31.13
2023-03-31T05:11:45.436Z,35.57
2023-03-31T05:14:47.285Z,34.40
2023-03-31T05:17:49.002Z,25.87
2023-03-31T05:20:50.780Z,30.87
2023-03-31T05:23:53.117Z,28.67
2023-03-31T05:26:54.710Z,24.17
2023-03-31T05:29:56.381Z,25.27
2023-03-31T05:32:58.097Z,29.73
2023-03-31T05:36:00.429Z,30.20
2023-03-31T05:39:02.351Z,31.00
2023-03-31T05:42:05.970Z,23.27
2023-03-31T05:45:09.368Z,53.20
2023-03-31T05:48:11.206Z,34.57
2023-03-31T05:51:12.943Z,33.40
2023-03-31T05:54:14.574Z,35.37
2023-03-31T05:57:16.226Z,35.63
2023-03-31T06:00:18.102Z,20.10
2023-03-31T06:03:19.845Z,25.93
2023-03-31T06:06:21.537Z,35.53
2023-03-31T06:09:23.173Z,36.20
2023-03-31T06:12:24.927Z,39.13
2023-03-31T06:15:26.573Z,38.40
2023-03-31T06:18:29.254Z,43.50
2023-03-31T06:21:31.012Z,35.67
2023-03-31T06:24:32.649Z,39.43
2023-03-31T06:27:34.314Z,42.80
2023-03-31T06:30:36.285Z,38.27
2023-03-31T06:33:38.383Z,36.63
2023-03-31T06:36:40.069Z,38.10
2023-03-31T06:39:42.014Z,40.87
2023-03-31T06:42:44.236Z,42.17
2023-03-31T06:45:45.953Z,48.20
2023-03-31T06:48:47.713Z,52.37
2023-03-31T06:51:49.312Z,56.43
2023-03-31T06:54:51.054Z,41.23
2023-03-31T06:57:52.802Z,45.27
2023-03-31T07:00:54.523Z,42.70
2023-03-31T07:03:56.368Z,43.90
2023-03-31T07:07:01.890Z,45.63
2023-03-31T07:10:03.939Z,43.20
2023-03-31T07:13:05.969Z,39.20
2023-03-31T07:16:09.989Z,32.03
2023-03-31T07:19:11.804Z,16.33
2023-03-31T07:22:14.524Z,13.63
2023-03-31T07:25:17.141Z,19.70
2023-03-31T07:28:18.877Z,17.40
2023-03-31T07:31:20.579Z,21.23
2023-03-31T07:34:22.225Z,17.47
2023-03-31T07:37:23.936Z,19.13
2023-03-31T07:40:26.975Z,15.33
2023-03-31T07:43:28.616Z,12.57
2023-03-31T07:46:30.633Z,16.23
2023-03-31T07:49:32.981Z,16.57
2023-03-31T07:52:34.754Z,31.57
2023-03-31T07:55:36.362Z,18.77
2023-03-31T07:58:38.078Z,17.00
2023-03-31T08:01:39.797Z,21.60
2023-03-31T08:04:44.623Z,36.23
2023-03-31T08:07:47.217Z,49.07
2023-03-31T08:10:48.861Z,49.63
2023-03-31T08:13:50.910Z,48.23
2023-03-31T08:16:55.388Z,52.70
2023-03-31T08:19:57.977Z,38.57
2023-03-31T08:23:01.600Z,36.27
2023-03-31T08:26:09.534Z,36.07
2023-03-31T08:29:11.286Z,39.90
2023-03-31T08:32:12.970Z,51.30
2023-03-31T08:35:14.846Z,62.43
2023-03-31T08:38:16.518Z,41.30
2023-03-31T08:41:21.516Z,51.47
2023-03-31T08:44:38.493Z,50.57
2023-03-31T08:47:40.354Z,29.77
2023-03-31T08:50:45.427Z,21.93
2023-03-31T08:53:53.209Z,38.17
2023-03-31T08:56:55.016Z,35.57
2023-03-31T08:59:58.878Z,18.40
2023-03-31T09:03:05.036Z,14.63
2023-03-31T09:06:12.232Z,44.40
2023-03-31T09:09:34.077Z,27.60
2023-03-31T09:12:43.742Z,12.27
2023-03-31T09:15:50.671Z,12.07
2023-03-31T09:18:53.886Z,17.23
2023-03-31T09:21:56.020Z,14.53
2023-03-31T09:25:06.953Z,24.13
2023-03-31T09:28:15.524Z,24.27
2023-03-31T09:31:19.712Z,21.77
2023-03-31T09:34:27.184Z,10.73
2023-03-31T09:37:31.726Z,11.73
2023-03-31T09:40:34.398Z,14.13
2023-03-31T09:43:36.156Z,12.37
2023-03-31T09:46:38.486Z,10.00
2023-03-31T09:49:41.385Z,10.30
2023-03-31T09:53:00.864Z,8.93
2023-03-31T09:56:03.727Z,10.80
2023-03-31T09:59:05.630Z,16.97
2023-03-31T10:02:23.928Z,13.07
2023-03-31T10:05:33.560Z,7.27
2023-03-31T10:08:53.943Z,11.87
2023-03-31T10:12:02.441Z,13.07
2023-03-31T10:15:17.757Z,11.00
2023-03-31T10:18:20.845Z,10.13
2023-03-31T10:21:24.534Z,12.43
2023-03-31T10:24:27.802Z,10.47
2023-03-31T10:27:31.557Z,9.03
2023-03-31T10:30:38.273Z,9.67
2023-03-31T10:33:42.755Z,8.03
2023-03-31T10:36:48.803Z,8.93
2023-03-31T10:39:57.865Z,10.63
2023-03-31T10:43:19.098Z,6.37
2023-03-31T10:46:21.511Z,10.53
2023-03-31T10:49:23.139Z,10.83
2023-03-31T10:52:25.818Z,9.20
2023-03-31T10:55:30.882Z,17.30
2023-03-31T10:58:32.541Z,11.97
2023-03-31T11:01:50.644Z,8.43
2023-03-31T11:04:52.259Z,13.40
2023-03-31T11:08:20.073Z,13.37
2023-03-31T11:11:32.024Z,9.67
2023-03-31T11:14:33.651Z,13.27
2023-03-31T11:17:47.470Z,9.77
2023-03-31T11:20:58.267Z,9.67
2023-03-31T11:24:09.311Z,11.33
2023-03-31T11:27:19.951Z,13.30
2023-03-31T11:30:24.634Z,5.27
2023-03-31T11:33:35.542Z,11.20
2023-03-31T11:36:51.567Z,10.20
2023-03-31T11:40:12.234Z,10.07
2023-03-31T11:43:32.392Z,10.57
2023-03-31T11:46:34.045Z,13.47
2023-03-31T11:49:39.864Z,9.97
2023-03-31T11:52:48.709Z,7.43
2023-03-31T11:55:52.067Z,9.77
2023-03-31T11:58:56.398Z,7.40
2023-03-31T12:02:04.321Z,7.93
2023-03-31T12:05:06.972Z,15.10
2023-03-31T12:08:11.490Z,11.20
2023-03-31T12:11:15.583Z,12.03
2023-03-31T12:14:35.865Z,12.43
2023-03-31T12:17:38.435Z,12.40
2023-03-31T12:20:42.690Z,10.93
2023-03-31T12:23:44.898Z,6.73
2023-03-31T12:26:53.146Z,8.57
2023-03-31T12:29:54.803Z,7.00
2023-03-31T12:33:03.021Z,6.40
2023-03-31T12:36:17.205Z,6.80
2023-03-31T12:39:22.025Z,8.30
2023-03-31T12:42:52.901Z,6.17
2023-03-31T12:45:54.552Z,7.60
2023-03-31T12:48:56.260Z,5.90
2023-03-31T12:52:16.495Z,6.17
2023-03-31T12:55:36.175Z,4.57
2023-03-31T12:58:42.154Z,6.40
2023-03-31T13:02:02.645Z,4.53
2023-03-31T13:05:22.878Z,6.40
2023-03-31T13:08:51.013Z,11.67
2023-03-31T13:11:52.780Z,5.00
2023-03-31T13:14:59.097Z,12.67
2023-03-31T13:18:02.627Z,8.47
2023-03-31T13:21:05.503Z,6.63
2023-03-31T13:24:07.733Z,7.97
2023-03-31T13:27:30.152Z,5.33
2023-03-31T13:30:41.423Z,7.03
2023-03-31T13:33:44.431Z,5.90
2023-03-31T13:37:09.136Z,7.20
2023-03-31T13:40:29.480Z,6.90
2023-03-31T13:43:37.056Z,5.63
2023-03-31T13:46:48.066Z,6.33
2023-03-31T13:49:49.738Z,6.97
2023-03-31T13:53:03.917Z,4.50
2023-03-31T13:56:17.707Z,8.50
2023-03-31T13:59:41.432Z,6.13
2023-03-31T14:03:01.775Z,9.97
2023-03-31T14:06:18.621Z,6.50
2023-03-31T14:09:32.276Z,9.87
2023-03-31T14:12:38.034Z,6.77
2023-03-31T14:15:42.902Z,6.47
2023-03-31T14:18:49.256Z,7.00
2023-03-31T14:22:09.892Z,12.20
2023-03-31T14:25:20.998Z,7.03
2023-03-31T14:28:29.829Z,7.20
2023-03-31T14:31:45.327Z,7.73
2023-03-31T14:34:53.794Z,11.80
2023-03-31T14:37:56.181Z,12.00
2023-03-31T14:41:01.400Z,5.93
2023-03-31T14:44:04.910Z,7.67
2023-03-31T14:47:06.675Z,13.97
2023-03-31T14:50:18.500Z,7.03
2023-03-31T14:53:23.644Z,14.90
2023-03-31T14:56:33.779Z,7.20
2023-03-31T14:59:35.928Z,9.90
2023-03-31T15:02:40.637Z,6.67
2023-03-31T15:05:43.710Z,7.70
2023-03-31T15:08:45.885Z,6.23
2023-03-31T15:11:48.097Z,7.37
2023-03-31T15:14:51.366Z,12.90
2023-03-31T15:17:54.610Z,5.30
2023-03-31T15:20:56.291Z,5.17
2023-03-31T15:23:58.710Z,10.33
2023-03-31T15:27:03.395Z,6.60
2023-03-31T15:30:09.440Z,14.37
2023-03-31T15:33:19.704Z,13.27
2023-03-31T15:36:22.608Z,9.87
2023-03-31T15:39:28.318Z,11.10
2023-03-31T15:42:30.257Z,8.63
2023-03-31T15:45:39.027Z,9.27
2023-03-31T15:48:51.907Z,7.53
2023-03-31T15:51:54.643Z,16.90
2023-03-31T15:54:56.927Z,10.50
2023-03-31T15:58:00.476Z,12.90
2023-03-31T16:01:05.033Z,8.03
2023-03-31T16:04:08.283Z,9.37
2023-03-31T16:07:16.790Z,6.07
2023-03-31T16:10:21.425Z,11.33
2023-03-31T16:13:23.424Z,11.93
2023-03-31T16:16:27.342Z,20.50
2023-03-31T16:19:31.416Z,10.60
2023-03-31T16:22:37.329Z,8.73
2023-03-31T16:25:39.946Z,11.97
2023-03-31T16:28:41.654Z,11.73
2023-03-31T16:31:43.290Z,13.90
2023-03-31T16:34:55.426Z,17.57
2023-03-31T16:37:57.083Z,446.13
2023-03-31T16:40:58.884Z,501.63
2023-03-31T16:44:01.035Z,699.17
2023-03-31T16:47:02.732Z,116.83
2023-03-31T16:50:07.438Z,34.47
2023-03-31T16:53:09.501Z,125.50
2023-03-31T16:56:12.924Z,34.80
2023-03-31T16:59:14.793Z,70.97
2023-03-31T17:02:16.496Z,56.43
2023-03-31T17:05:18.143Z,50.50
2023-03-31T17:08:20.592Z,32.70
2023-03-31T17:11:22.882Z,38.00
2023-03-31T17:14:24.836Z,40.20
2023-03-31T17:17:26.493Z,29.83
2023-03-31T17:20:28.327Z,29.80
2023-03-31T17:23:30.599Z,40.13
2023-03-31T17:26:32.539Z,48.30
2023-03-31T17:29:34.135Z,51.30
2023-03-31T17:32:35.952Z,51.13
2023-03-31T17:35:38.127Z,86.23
2023-03-31T17:38:40.077Z,52.57
2023-03-31T17:41:42.016Z,46.43
2023-03-31T17:44:43.695Z,42.57
2023-03-31T17:47:46.238Z,39.13
2023-03-31T17:50:48.012Z,40.20
2023-03-31T17:53:49.835Z,36.60
2023-03-31T17:56:51.717Z,41.37
2023-03-31T17:59:53.414Z,27.07
2023-03-31T18:02:55.664Z,28.43
2023-03-31T18:05:57.665Z,19.97
2023-03-31T18:08:59.322Z,28.07
2023-03-31T18:12:01.102Z,21.93
2023-03-31T18:15:05.402Z,22.37
2023-03-31T18:18:07.375Z,21.07
2023-03-31T18:21:10.258Z,20.57
2023-03-31T18:24:13.649Z,28.80
2023-03-31T18:27:15.323Z,27.77
2023-03-31T18:30:17.340Z,33.40
2023-03-31T18:33:20.140Z,28.60
2023-03-31T18:36:23.183Z,33.27
2023-03-31T18:39:25.028Z,33.13
2023-03-31T18:42:26.635Z,26.83
2023-03-31T18:45:28.515Z,20.43
2023-03-31T18:48:30.375Z,22.07
2023-03-31T18:51:33.090Z,18.83
2023-03-31T18:54:34.792Z,22.17
2023-03-31T18:57:36.495Z,18.10
2023-03-31T19:00:38.196Z,19.40
2023-03-31T19:03:40.192Z,15.43
2023-03-31T19:06:41.894Z,18.70
2023-03-31T19:09:43.682Z,24.73
2023-03-31T19:12:48.652Z,25.97
2023-03-31T19:15:50.689Z,16.00
2023-03-31T19:18:52.840Z,17.53
2023-03-31T19:21:54.692Z,15.53
2023-03-31T19:24:56.298Z,13.70
2023-03-31T19:27:57.915Z,14.53
2023-03-31T19:31:02.149Z,12.20
2023-03-31T19:34:08.972Z,13.53
2023-03-31T19:37:11.207Z,14.10
2023-03-31T19:40:13.521Z,18.03
2023-03-31T19:43:20.947Z,16.43
2023-03-31T19:46:22.679Z,15.77
2023-03-31T19:49:24.460Z,15.03
2023-03-31T19:52:26.278Z,14.27
2023-03-31T19:55:28.064Z,14.67
2023-03-31T19:58:30.847Z,13.90
2023-03-31T20:01:32.665Z,17.23
2023-03-31T20:04:34.657Z,16.33
2023-03-31T20:07:36.444Z,19.60
2023-03-31T20:10:38.112Z,20.60
2023-03-31T20:13:40.929Z,21.37
2023-03-31T20:16:42.584Z,20.00
2023-03-31T20:19:45.032Z,20.67
2023-03-31T20:22:46.821Z,24.40
2023-03-31T20:25:48.451Z,26.57
2023-03-31T20:28:50.133Z,24.27
2023-03-31T20:31:51.883Z,25.80
2023-03-31T20:34:54.725Z,22.27
2023-03-31T20:37:56.740Z,17.17
2023-03-31T20:40:58.672Z,22.53
2023-03-31T20:44:00.981Z,23.33
2023-03-31T20:47:02.749Z,21.23
2023-03-31T20:50:04.679Z,21.67
2023-03-31T20:53:07.057Z,23.53
2023-03-31T20:56:09.884Z,17.00
2023-03-31T20:59:12.839Z,21.50
2023-03-31T21:02:15.215Z,16.07
2023-03-31T21:05:18.124Z,18.30
2023-03-31T21:08:19.800Z,23.53
2023-03-31T21:11:22.737Z,18.43
2023-03-31T21:14:24.386Z,25.80
2023-03-31T21:17:26.013Z,19.80
2023-03-31T21:20:27.731Z,18.33
2023-03-31T21:23:30.014Z,22.70
2023-03-31T21:26:31.640Z,15.30
2023-03-31T21:29:33.311Z,13.33
2023-03-31T21:32:35.010Z,15.63
2023-03-31T21:35:37.005Z,14.73
2023-03-31T21:38:39.026Z,15.13
2023-03-31T21:41:41.615Z,17.90
2023-03-31T21:44:43.715Z,13.60
2023-03-31T21:47:45.383Z,15.90
2023-03-31T21:50:47.128Z,15.00
2023-03-31T21:53:49.567Z,16.77
2023-03-31T21:56:51.189Z,16.30
2023-03-31T21:59:52.801Z,11.90
2023-03-31T22:03:02.280Z,11.17
2023-03-31T22:06:16.538Z,17.60
2023-03-31T22:09:18.299Z,14.23
2023-03-31T22:12:19.949Z,15.13
2023-03-31T22:15:21.607Z,11.83
2023-03-31T22:18:23.356Z,16.87
2023-03-31T22:21:26.366Z,12.47
2023-03-31T22:24:28.074Z,13.93
2023-03-31T22:27:29.799Z,13.67
2023-03-31T22:30:31.643Z,16.53
2023-03-31T22:33:33.545Z,12.43
2023-03-31T22:36:35.218Z,17.40
2023-03-31T22:39:36.891Z,16.93
2023-03-31T22:42:38.630Z,14.23
2023-03-31T22:45:40.359Z,15.00
2023-03-31T22:48:42.049Z,14.67
2023-03-31T22:51:45.243Z,12.10
2023-03-31T22:54:47.048Z,16.03
2023-03-31T22:57:48.849Z,14.03
2023-03-31T23:00:57.216Z,14.30
2023-03-31T23:04:00.699Z,15.77
2023-03-31T23:07:02.368Z,16.67
2023-03-31T23:10:04.611Z,17.63
2023-03-31T23:13:07.154Z,23.77
2023-03-31T23:16:10.213Z,14.33
2023-03-31T23:19:12.394Z,13.63
2023-03-31T23:22:14.411Z,17.07
2023-03-31T23:25:16.209Z,11.53
2023-03-31T23:28:17.954Z,14.33
2023-03-31T23:31:21.429Z,15.60
2023-03-31T23:34:23.147Z,10.47
2023-03-31T23:37:24.826Z,17.10
2023-03-31T23:40:26.537Z,18.50
2023-03-31T23:43:28.819Z,11.20
2023-03-31T23:46:31.973Z,12.20
2023-03-31T23:49:33.872Z,14.03
2023-03-31T23:52:36.232Z,16.67
2023-03-31T23:55:38.062Z,14.43
2023-03-31T23:58:40.383Z,13.87
